sensor_id;sensor_type;location;lat;lon;timestamp;temperature;humidity
35445;DHT22;21562;49.476;6.086;2022-12-07T00:01:40;6.00;99.90
35445;DHT22;21562;49.476;6.086;2022-12-07T00:04:09;6.00;99.90
35445;DHT22;21562;49.476;6.086;2022-12-07T00:06:37;5.70;99.90
35445;DHT22;21562;49.476;6.086;2022-12-07T00:09:04;5.80;99.90
35445;DHT22;21562;49.476;6.086;2022-12-07T00:11:30;6.10;99.90
35445;DHT22;21562;49.476;6.086;2022-12-07T00:13:58;6.40;99.90
35445;DHT22;21562;49.476;6.086;2022-12-07T00:16:26;6.60;99.90
35445;DHT22;21562;49.476;6.086;2022-12-07T00:18:52;6.80;99.90
35445;DHT22;21562;49.476;6.086;2022-12-07T00:21:19;7.00;99.90
35445;DHT22;21562;49.476;6.086;2022-12-07T00:23:46;7.20;99.90
35445;DHT22;21562;49.476;6.086;2022-12-07T00:26:17;7.30;99.90
35445;DHT22;21562;49.476;6.086;2022-12-07T00:28:59;7.30;99.90
35445;DHT22;21562;49.476;6.086;2022-12-07T00:31:27;7.20;99.90
35445;DHT22;21562;49.476;6.086;2022-12-07T00:33:53;6.90;99.90
35445;DHT22;21562;49.476;6.086;2022-12-07T00:36:22;6.70;99.90
35445;DHT22;21562;49.476;6.086;2022-12-07T00:38:48;6.30;99.90
35445;DHT22;21562;49.476;6.086;2022-12-07T00:41:22;6.10;99.90
35445;DHT22;21562;49.476;6.086;2022-12-07T00:43:49;5.80;99.90
35445;DHT22;21562;49.476;6.086;2022-12-07T00:46:15;5.80;99.90
35445;DHT22;21562;49.476;6.086;2022-12-07T00:48:41;5.80;99.90
35445;DHT22;21562;49.476;6.086;2022-12-07T00:51:08;5.80;99.90
35445;DHT22;21562;49.476;6.086;2022-12-07T00:53:34;5.60;99.90
35445;DHT22;21562;49.476;6.086;2022-12-07T00:56:08;5.60;99.90
35445;DHT22;21562;49.476;6.086;2022-12-07T00:58:34;5.40;99.90
35445;DHT22;21562;49.476;6.086;2022-12-07T01:01:04;5.30;99.90
35445;DHT22;21562;49.476;6.086;2022-12-07T01:03:30;5.20;99.90
35445;DHT22;21562;49.476;6.086;2022-12-07T01:05:57;5.10;99.90
35445;DHT22;21562;49.476;6.086;2022-12-07T01:08:24;5.10;99.90
35445;DHT22;21562;49.476;6.086;2022-12-07T01:10:58;5.00;99.90
35445;DHT22;21562;49.476;6.086;2022-12-07T01:13:24;5.10;99.90
35445;DHT22;21562;49.476;6.086;2022-12-07T01:15:49;4.90;99.90
35445;DHT22;21562;49.476;6.086;2022-12-07T01:18:15;5.00;99.90
35445;DHT22;21562;49.476;6.086;2022-12-07T01:20:40;5.10;99.90
35445;DHT22;21562;49.476;6.086;2022-12-07T01:23:06;5.20;99.90
35445;DHT22;21562;49.476;6.086;2022-12-07T01:25:32;5.40;99.90
35445;DHT22;21562;49.476;6.086;2022-12-07T01:27:57;5.30;99.90
35445;DHT22;21562;49.476;6.086;2022-12-07T01:30:23;5.10;99.90
35445;DHT22;21562;49.476;6.086;2022-12-07T01:32:49;5.10;99.90
35445;DHT22;21562;49.476;6.086;2022-12-07T01:35:14;5.10;99.90
35445;DHT22;21562;49.476;6.086;2022-12-07T01:37:40;5.30;99.90
35445;DHT22;21562;49.476;6.086;2022-12-07T01:40:07;5.40;99.90
35445;DHT22;21562;49.476;6.086;2022-12-07T01:42:34;5.30;99.90
35445;DHT22;21562;49.476;6.086;2022-12-07T01:47:52;5.40;99.90
35445;DHT22;21562;49.476;6.086;2022-12-07T01:50:19;5.20;99.90
35445;DHT22;21562;49.476;6.086;2022-12-07T01:52:48;5.10;99.90
35445;DHT22;21562;49.476;6.086;2022-12-07T01:55:15;5.10;99.90
35445;DHT22;21562;49.476;6.086;2022-12-07T01:57:43;5.10;99.90
35445;DHT22;21562;49.476;6.086;2022-12-07T02:00:11;5.10;99.90
35445;DHT22;21562;49.476;6.086;2022-12-07T02:02:43;5.00;99.90
35445;DHT22;21562;49.476;6.086;2022-12-07T02:05:09;5.10;99.90
35445;DHT22;21562;49.476;6.086;2022-12-07T02:07:37;5.10;99.90
35445;DHT22;21562;49.476;6.086;2022-12-07T02:10:20;5.20;99.90
35445;DHT22;21562;49.476;6.086;2022-12-07T02:12:50;5.20;99.90
35445;DHT22;21562;49.476;6.086;2022-12-07T02:15:19;5.20;99.90
35445;DHT22;21562;49.476;6.086;2022-12-07T02:17:55;5.00;99.90
35445;DHT22;21562;49.476;6.086;2022-12-07T02:20:28;5.00;99.90
35445;DHT22;21562;49.476;6.086;2022-12-07T02:25:55;5.40;99.90
35445;DHT22;21562;49.476;6.086;2022-12-07T02:28:53;5.30;99.90
35445;DHT22;21562;49.476;6.086;2022-12-07T02:31:23;5.30;99.90
35445;DHT22;21562;49.476;6.086;2022-12-07T02:33:57;5.30;99.90
35445;DHT22;21562;49.476;6.086;2022-12-07T02:36:31;5.40;99.90
35445;DHT22;21562;49.476;6.086;2022-12-07T02:41:40;5.50;99.90
35445;DHT22;21562;49.476;6.086;2022-12-07T02:44:12;5.50;99.90
35445;DHT22;21562;49.476;6.086;2022-12-07T02:47:01;5.30;99.90
35445;DHT22;21562;49.476;6.086;2022-12-07T02:49:29;5.20;99.90
35445;DHT22;21562;49.476;6.086;2022-12-07T02:51:55;5.20;99.90
35445;DHT22;21562;49.476;6.086;2022-12-07T02:54:21;5.20;99.90
35445;DHT22;21562;49.476;6.086;2022-12-07T02:56:51;5.30;99.90
35445;DHT22;21562;49.476;6.086;2022-12-07T03:19:17;5.40;99.90
35445;DHT22;21562;49.476;6.086;2022-12-07T03:21:47;5.20;99.90
35445;DHT22;21562;49.476;6.086;2022-12-07T03:24:18;5.30;99.90
35445;DHT22;21562;49.476;6.086;2022-12-07T03:26:52;5.30;99.90
35445;DHT22;21562;49.476;6.086;2022-12-07T03:29:27;5.30;99.90
35445;DHT22;21562;49.476;6.086;2022-12-07T03:32:30;5.20;99.90
35445;DHT22;21562;49.476;6.086;2022-12-07T03:35:25;5.30;99.90
35445;DHT22;21562;49.476;6.086;2022-12-07T03:40:26;5.30;99.90
35445;DHT22;21562;49.476;6.086;2022-12-07T03:42:54;5.20;99.90
35445;DHT22;21562;49.476;6.086;2022-12-07T03:45:25;5.20;99.90
35445;DHT22;21562;49.476;6.086;2022-12-07T03:48:02;5.20;99.90
35445;DHT22;21562;49.476;6.086;2022-12-07T03:50:44;5.30;99.90
35445;DHT22;21562;49.476;6.086;2022-12-07T03:53:15;5.30;99.90
35445;DHT22;21562;49.476;6.086;2022-12-07T03:55:46;5.40;99.90
35445;DHT22;21562;49.476;6.086;2022-12-07T03:58:16;5.30;99.90
35445;DHT22;21562;49.476;6.086;2022-12-07T04:00:44;5.30;99.90
35445;DHT22;21562;49.476;6.086;2022-12-07T04:03:10;5.30;99.90
35445;DHT22;21562;49.476;6.086;2022-12-07T04:05:37;5.30;99.90
35445;DHT22;21562;49.476;6.086;2022-12-07T04:08:04;5.30;99.90
35445;DHT22;21562;49.476;6.086;2022-12-07T04:10:30;5.30;99.90
35445;DHT22;21562;49.476;6.086;2022-12-07T04:12:55;5.50;99.90
35445;DHT22;21562;49.476;6.086;2022-12-07T04:15:21;5.30;99.90
35445;DHT22;21562;49.476;6.086;2022-12-07T04:17:47;5.30;99.90
35445;DHT22;21562;49.476;6.086;2022-12-07T04:20:13;5.40;99.90
35445;DHT22;21562;49.476;6.086;2022-12-07T04:22:39;5.40;99.90
35445;DHT22;21562;49.476;6.086;2022-12-07T04:25:05;5.40;99.90
35445;DHT22;21562;49.476;6.086;2022-12-07T04:27:30;5.50;99.90
35445;DHT22;21562;49.476;6.086;2022-12-07T04:29:56;5.20;99.90
35445;DHT22;21562;49.476;6.086;2022-12-07T04:32:22;5.00;99.90
35445;DHT22;21562;49.476;6.086;2022-12-07T04:34:48;5.10;99.90
35445;DHT22;21562;49.476;6.086;2022-12-07T04:37:14;5.00;99.90
35445;DHT22;21562;49.476;6.086;2022-12-07T04:39:39;5.00;99.90
35445;DHT22;21562;49.476;6.086;2022-12-07T04:42:05;5.10;99.90
35445;DHT22;21562;49.476;6.086;2022-12-07T04:44:31;5.20;99.90
35445;DHT22;21562;49.476;6.086;2022-12-07T04:46:57;5.10;99.90
35445;DHT22;21562;49.476;6.086;2022-12-07T04:49:23;5.10;99.90
35445;DHT22;21562;49.476;6.086;2022-12-07T04:51:49;5.10;99.90
35445;DHT22;21562;49.476;6.086;2022-12-07T04:54:15;5.20;99.90
35445;DHT22;21562;49.476;6.086;2022-12-07T04:56:42;5.00;99.90
35445;DHT22;21562;49.476;6.086;2022-12-07T04:59:07;5.10;99.90
35445;DHT22;21562;49.476;6.086;2022-12-07T05:01:34;5.10;99.90
35445;DHT22;21562;49.476;6.086;2022-12-07T05:04:00;5.10;99.90
35445;DHT22;21562;49.476;6.086;2022-12-07T05:06:26;5.00;99.90
35445;DHT22;21562;49.476;6.086;2022-12-07T05:08:51;4.80;99.90
35445;DHT22;21562;49.476;6.086;2022-12-07T05:11:17;5.00;99.90
35445;DHT22;21562;49.476;6.086;2022-12-07T05:14:02;4.90;99.90
35445;DHT22;21562;49.476;6.086;2022-12-07T05:16:29;5.10;99.90
35445;DHT22;21562;49.476;6.086;2022-12-07T05:18:55;5.20;99.90
35445;DHT22;21562;49.476;6.086;2022-12-07T05:21:21;5.30;99.90
35445;DHT22;21562;49.476;6.086;2022-12-07T05:23:47;5.30;99.90
35445;DHT22;21562;49.476;6.086;2022-12-07T05:26:12;5.20;99.90
35445;DHT22;21562;49.476;6.086;2022-12-07T05:28:38;5.30;99.90
35445;DHT22;21562;49.476;6.086;2022-12-07T05:31:04;5.10;99.90
35445;DHT22;21562;49.476;6.086;2022-12-07T05:33:29;5.00;99.90
35445;DHT22;21562;49.476;6.086;2022-12-07T05:35:55;5.30;99.90
35445;DHT22;21562;49.476;6.086;2022-12-07T05:38:21;5.60;99.90
35445;DHT22;21562;49.476;6.086;2022-12-07T05:40:46;5.40;99.90
35445;DHT22;21562;49.476;6.086;2022-12-07T05:43:12;5.50;99.90
35445;DHT22;21562;49.476;6.086;2022-12-07T05:45:37;5.60;99.90
35445;DHT22;21562;49.476;6.086;2022-12-07T05:48:03;5.20;99.90
35445;DHT22;21562;49.476;6.086;2022-12-07T05:50:29;5.30;99.90
35445;DHT22;21562;49.476;6.086;2022-12-07T05:52:54;5.60;99.90
35445;DHT22;21562;49.476;6.086;2022-12-07T05:55:20;5.80;99.90
35445;DHT22;21562;49.476;6.086;2022-12-07T05:57:46;5.70;99.90
35445;DHT22;21562;49.476;6.086;2022-12-07T06:00:32;5.50;99.90
35445;DHT22;21562;49.476;6.086;2022-12-07T06:02:57;5.60;99.90
35445;DHT22;21562;49.476;6.086;2022-12-07T06:05:23;5.50;99.90
35445;DHT22;21562;49.476;6.086;2022-12-07T06:07:49;5.30;99.90
35445;DHT22;21562;49.476;6.086;2022-12-07T06:10:15;5.20;99.90
35445;DHT22;21562;49.476;6.086;2022-12-07T06:12:40;5.20;99.90
35445;DHT22;21562;49.476;6.086;2022-12-07T06:15:09;5.20;99.90
35445;DHT22;21562;49.476;6.086;2022-12-07T06:17:35;5.40;99.90
35445;DHT22;21562;49.476;6.086;2022-12-07T06:20:02;5.50;99.90
35445;DHT22;21562;49.476;6.086;2022-12-07T06:22:28;5.40;99.90
35445;DHT22;21562;49.476;6.086;2022-12-07T06:24:53;5.30;99.90
35445;DHT22;21562;49.476;6.086;2022-12-07T06:27:19;5.50;99.90
35445;DHT22;21562;49.476;6.086;2022-12-07T06:29:45;5.40;99.90
35445;DHT22;21562;49.476;6.086;2022-12-07T06:32:10;5.40;99.90
35445;DHT22;21562;49.476;6.086;2022-12-07T06:34:37;5.10;99.90
35445;DHT22;21562;49.476;6.086;2022-12-07T06:37:03;4.90;99.90
35445;DHT22;21562;49.476;6.086;2022-12-07T06:39:29;4.80;99.90
35445;DHT22;21562;49.476;6.086;2022-12-07T06:41:55;5.00;99.90
35445;DHT22;21562;49.476;6.086;2022-12-07T06:44:21;5.00;99.90
35445;DHT22;21562;49.476;6.086;2022-12-07T06:46:48;5.10;99.90
35445;DHT22;21562;49.476;6.086;2022-12-07T06:49:14;5.00;99.90
35445;DHT22;21562;49.476;6.086;2022-12-07T06:51:40;5.10;99.90
35445;DHT22;21562;49.476;6.086;2022-12-07T06:54:09;5.10;99.90
35445;DHT22;21562;49.476;6.086;2022-12-07T06:56:35;5.30;99.90
35445;DHT22;21562;49.476;6.086;2022-12-07T06:59:01;5.30;99.90
35445;DHT22;21562;49.476;6.086;2022-12-07T07:01:26;5.20;99.90
35445;DHT22;21562;49.476;6.086;2022-12-07T07:03:52;5.00;99.90
35445;DHT22;21562;49.476;6.086;2022-12-07T07:06:17;4.90;99.90
35445;DHT22;21562;49.476;6.086;2022-12-07T07:08:43;5.00;99.90
35445;DHT22;21562;49.476;6.086;2022-12-07T07:11:11;5.10;99.90
35445;DHT22;21562;49.476;6.086;2022-12-07T07:13:37;5.20;99.90
35445;DHT22;21562;49.476;6.086;2022-12-07T07:16:03;5.30;99.90
35445;DHT22;21562;49.476;6.086;2022-12-07T07:18:29;5.20;99.90
35445;DHT22;21562;49.476;6.086;2022-12-07T07:20:55;5.20;99.90
35445;DHT22;21562;49.476;6.086;2022-12-07T07:23:21;5.10;99.90
35445;DHT22;21562;49.476;6.086;2022-12-07T07:25:47;4.80;99.90
35445;DHT22;21562;49.476;6.086;2022-12-07T07:28:13;4.80;99.90
35445;DHT22;21562;49.476;6.086;2022-12-07T07:30:39;4.90;99.90
35445;DHT22;21562;49.476;6.086;2022-12-07T07:33:05;4.90;99.90
35445;DHT22;21562;49.476;6.086;2022-12-07T07:35:32;4.90;99.90
35445;DHT22;21562;49.476;6.086;2022-12-07T07:37:59;5.00;99.90
35445;DHT22;21562;49.476;6.086;2022-12-07T07:40:26;4.90;99.90
35445;DHT22;21562;49.476;6.086;2022-12-07T07:42:53;4.90;99.90
35445;DHT22;21562;49.476;6.086;2022-12-07T07:45:20;5.00;99.90
35445;DHT22;21562;49.476;6.086;2022-12-07T07:47:46;5.20;99.90
35445;DHT22;21562;49.476;6.086;2022-12-07T07:50:13;5.20;99.90
35445;DHT22;21562;49.476;6.086;2022-12-07T07:52:38;5.00;99.90
35445;DHT22;21562;49.476;6.086;2022-12-07T07:55:05;4.90;99.90
35445;DHT22;21562;49.476;6.086;2022-12-07T07:57:30;5.00;99.90
35445;DHT22;21562;49.476;6.086;2022-12-07T07:59:56;4.90;99.90
35445;DHT22;21562;49.476;6.086;2022-12-07T08:02:22;4.90;99.90
35445;DHT22;21562;49.476;6.086;2022-12-07T08:04:48;5.10;99.90
35445;DHT22;21562;49.476;6.086;2022-12-07T08:07:14;5.40;99.90
35445;DHT22;21562;49.476;6.086;2022-12-07T08:09:39;5.60;99.90
35445;DHT22;21562;49.476;6.086;2022-12-07T08:12:05;5.60;99.90
35445;DHT22;21562;49.476;6.086;2022-12-07T08:14:32;5.40;99.90
35445;DHT22;21562;49.476;6.086;2022-12-07T08:16:58;5.50;99.90
35445;DHT22;21562;49.476;6.086;2022-12-07T08:19:24;5.50;99.90
35445;DHT22;21562;49.476;6.086;2022-12-07T08:21:49;5.40;99.90
35445;DHT22;21562;49.476;6.086;2022-12-07T08:24:15;5.30;99.90
35445;DHT22;21562;49.476;6.086;2022-12-07T08:26:41;5.30;99.90
35445;DHT22;21562;49.476;6.086;2022-12-07T08:29:07;5.50;99.90
35445;DHT22;21562;49.476;6.086;2022-12-07T08:31:33;5.60;99.90
35445;DHT22;21562;49.476;6.086;2022-12-07T08:33:58;5.80;99.90
35445;DHT22;21562;49.476;6.086;2022-12-07T08:36:24;5.70;99.90
35445;DHT22;21562;49.476;6.086;2022-12-07T08:38:50;5.50;99.90
35445;DHT22;21562;49.476;6.086;2022-12-07T08:41:16;5.50;99.90
35445;DHT22;21562;49.476;6.086;2022-12-07T08:43:42;5.60;99.90
35445;DHT22;21562;49.476;6.086;2022-12-07T08:46:19;5.80;99.90
35445;DHT22;21562;49.476;6.086;2022-12-07T08:49:07;6.20;99.90
35445;DHT22;21562;49.476;6.086;2022-12-07T08:51:34;6.30;99.90
35445;DHT22;21562;49.476;6.086;2022-12-07T08:54:04;6.30;99.90
35445;DHT22;21562;49.476;6.086;2022-12-07T08:56:30;5.90;99.90
35445;DHT22;21562;49.476;6.086;2022-12-07T08:58:57;5.70;99.90
35445;DHT22;21562;49.476;6.086;2022-12-07T09:01:23;5.70;99.90
35445;DHT22;21562;49.476;6.086;2022-12-07T09:03:48;5.70;99.90
35445;DHT22;21562;49.476;6.086;2022-12-07T09:06:14;6.00;99.90
35445;DHT22;21562;49.476;6.086;2022-12-07T09:08:43;6.20;99.90
35445;DHT22;21562;49.476;6.086;2022-12-07T09:11:11;6.10;99.90
35445;DHT22;21562;49.476;6.086;2022-12-07T09:13:36;6.00;99.90
35445;DHT22;21562;49.476;6.086;2022-12-07T09:16:02;6.20;99.90
35445;DHT22;21562;49.476;6.086;2022-12-07T09:18:28;6.10;99.90
35445;DHT22;21562;49.476;6.086;2022-12-07T09:20:53;6.00;99.90
35445;DHT22;21562;49.476;6.086;2022-12-07T09:23:19;6.10;99.90
35445;DHT22;21562;49.476;6.086;2022-12-07T09:25:45;6.10;99.90
35445;DHT22;21562;49.476;6.086;2022-12-07T09:28:10;6.10;99.90
35445;DHT22;21562;49.476;6.086;2022-12-07T09:30:36;5.90;99.90
35445;DHT22;21562;49.476;6.086;2022-12-07T09:33:02;5.90;99.90
35445;DHT22;21562;49.476;6.086;2022-12-07T09:35:28;5.80;99.90
35445;DHT22;21562;49.476;6.086;2022-12-07T09:37:53;6.20;99.90
35445;DHT22;21562;49.476;6.086;2022-12-07T09:40:21;6.50;99.90
35445;DHT22;21562;49.476;6.086;2022-12-07T09:42:51;6.80;99.90
35445;DHT22;21562;49.476;6.086;2022-12-07T09:45:24;7.10;99.90
35445;DHT22;21562;49.476;6.086;2022-12-07T09:47:50;7.40;99.90
35445;DHT22;21562;49.476;6.086;2022-12-07T09:50:20;7.60;99.90
35445;DHT22;21562;49.476;6.086;2022-12-07T09:52:47;7.50;99.90
35445;DHT22;21562;49.476;6.086;2022-12-07T09:55:16;7.40;99.90
35445;DHT22;21562;49.476;6.086;2022-12-07T09:57:44;7.60;99.90
35445;DHT22;21562;49.476;6.086;2022-12-07T10:00:14;7.60;99.90
35445;DHT22;21562;49.476;6.086;2022-12-07T10:02:57;7.80;99.90
35445;DHT22;21562;49.476;6.086;2022-12-07T10:05:46;7.80;99.90
35445;DHT22;21562;49.476;6.086;2022-12-07T10:08:14;7.70;99.90
35445;DHT22;21562;49.476;6.086;2022-12-07T10:10:41;7.40;99.90
35445;DHT22;21562;49.476;6.086;2022-12-07T10:13:08;10.00;99.90
35445;DHT22;21562;49.476;6.086;2022-12-07T10:15:56;11.70;99.90
35445;DHT22;21562;49.476;6.086;2022-12-07T10:23:33;12.20;99.90
35445;DHT22;21562;49.476;6.086;2022-12-07T10:26:01;11.00;99.90
35445;DHT22;21562;49.476;6.086;2022-12-07T10:28:44;9.40;99.90
35445;DHT22;21562;49.476;6.086;2022-12-07T10:31:22;9.20;99.90
35445;DHT22;21562;49.476;6.086;2022-12-07T10:33:54;8.80;99.90
35445;DHT22;21562;49.476;6.086;2022-12-07T10:38:58;6.90;99.90
35445;DHT22;21562;49.476;6.086;2022-12-07T10:41:25;6.60;99.90
35445;DHT22;21562;49.476;6.086;2022-12-07T10:43:56;6.60;99.90
35445;DHT22;21562;49.476;6.086;2022-12-07T10:56:29;7.30;99.90
35445;DHT22;21562;49.476;6.086;2022-12-07T10:59:24;7.60;99.90
35445;DHT22;21562;49.476;6.086;2022-12-07T11:10:30;7.50;99.90
35445;DHT22;21562;49.476;6.086;2022-12-07T11:16:21;6.80;99.90
35445;DHT22;21562;49.476;6.086;2022-12-07T11:21:55;6.60;99.90
35445;DHT22;21562;49.476;6.086;2022-12-07T11:30:03;7.50;99.90
35445;DHT22;21562;49.476;6.086;2022-12-07T11:33:09;7.50;99.90
35445;DHT22;21562;49.476;6.086;2022-12-07T11:38:14;7.60;99.90
35445;DHT22;21562;49.476;6.086;2022-12-07T11:40:44;7.80;99.90
35445;DHT22;21562;49.476;6.086;2022-12-07T11:43:27;7.70;99.90
35445;DHT22;21562;49.476;6.086;2022-12-07T11:46:06;7.40;99.90
35445;DHT22;21562;49.476;6.086;2022-12-07T11:48:41;7.50;99.90
35445;DHT22;21562;49.476;6.086;2022-12-07T11:51:13;7.30;99.90
35445;DHT22;21562;49.476;6.086;2022-12-07T11:53:48;6.90;99.90
35445;DHT22;21562;49.476;6.086;2022-12-07T11:56:20;6.80;99.90
35445;DHT22;21562;49.476;6.086;2022-12-07T12:01:19;7.40;99.90
35445;DHT22;21562;49.476;6.086;2022-12-07T12:06:37;7.40;99.90
35445;DHT22;21562;49.476;6.086;2022-12-07T12:09:23;6.90;99.90
35445;DHT22;21562;49.476;6.086;2022-12-07T12:17:30;7.40;99.90
35445;DHT22;21562;49.476;6.086;2022-12-07T12:20:30;7.20;99.90
35445;DHT22;21562;49.476;6.086;2022-12-07T12:23:12;7.30;99.90
35445;DHT22;21562;49.476;6.086;2022-12-07T12:26:00;7.40;99.90
35445;DHT22;21562;49.476;6.086;2022-12-07T12:28:39;7.40;99.90
35445;DHT22;21562;49.476;6.086;2022-12-07T12:33:38;7.50;99.90
35445;DHT22;21562;49.476;6.086;2022-12-07T12:39:12;7.20;99.90
35445;DHT22;21562;49.476;6.086;2022-12-07T12:53:20;7.40;99.90
35445;DHT22;21562;49.476;6.086;2022-12-07T12:58:38;7.60;99.90
35445;DHT22;21562;49.476;6.086;2022-12-07T13:03:55;7.40;99.90
35445;DHT22;21562;49.476;6.086;2022-12-07T13:08:50;7.60;99.90
35445;DHT22;21562;49.476;6.086;2022-12-07T13:20:04;7.90;99.90
35445;DHT22;21562;49.476;6.086;2022-12-07T13:25:11;7.80;99.90
35445;DHT22;21562;49.476;6.086;2022-12-07T13:27:39;7.60;99.90
35445;DHT22;21562;49.476;6.086;2022-12-07T13:30:31;7.50;99.90
35445;DHT22;21562;49.476;6.086;2022-12-07T13:32:58;7.30;99.90
35445;DHT22;21562;49.476;6.086;2022-12-07T13:37:57;6.80;99.90
35445;DHT22;21562;49.476;6.086;2022-12-07T13:40:23;6.70;99.90
35445;DHT22;21562;49.476;6.086;2022-12-07T13:42:58;6.70;99.90
35445;DHT22;21562;49.476;6.086;2022-12-07T13:45:27;6.60;99.90
35445;DHT22;21562;49.476;6.086;2022-12-07T13:48:31;6.60;99.90
35445;DHT22;21562;49.476;6.086;2022-12-07T13:50:58;6.60;99.90
35445;DHT22;21562;49.476;6.086;2022-12-07T13:53:25;6.90;99.90
35445;DHT22;21562;49.476;6.086;2022-12-07T13:55:59;6.80;99.90
35445;DHT22;21562;49.476;6.086;2022-12-07T13:58:26;6.90;99.90
35445;DHT22;21562;49.476;6.086;2022-12-07T14:00:55;6.90;99.90
35445;DHT22;21562;49.476;6.086;2022-12-07T14:03:28;6.90;99.90
35445;DHT22;21562;49.476;6.086;2022-12-07T14:08:31;6.90;99.90
35445;DHT22;21562;49.476;6.086;2022-12-07T14:10:58;6.90;99.90
35445;DHT22;21562;49.476;6.086;2022-12-07T14:13:37;7.00;99.90
35445;DHT22;21562;49.476;6.086;2022-12-07T14:18:53;7.10;99.90
35445;DHT22;21562;49.476;6.086;2022-12-07T14:21:23;7.30;99.90
35445;DHT22;21562;49.476;6.086;2022-12-07T14:24:09;7.50;99.90
35445;DHT22;21562;49.476;6.086;2022-12-07T14:26:37;7.20;99.90
35445;DHT22;21562;49.476;6.086;2022-12-07T14:29:22;7.20;99.90
35445;DHT22;21562;49.476;6.086;2022-12-07T14:31:48;7.10;99.90
35445;DHT22;21562;49.476;6.086;2022-12-07T14:34:14;7.20;99.90
35445;DHT22;21562;49.476;6.086;2022-12-07T14:36:39;7.20;99.90
35445;DHT22;21562;49.476;6.086;2022-12-07T14:39:05;7.00;99.90
35445;DHT22;21562;49.476;6.086;2022-12-07T14:41:31;7.00;99.90
35445;DHT22;21562;49.476;6.086;2022-12-07T14:44:15;7.10;99.90
35445;DHT22;21562;49.476;6.086;2022-12-07T14:46:41;6.80;99.90
35445;DHT22;21562;49.476;6.086;2022-12-07T14:49:07;6.80;99.90
35445;DHT22;21562;49.476;6.086;2022-12-07T14:51:33;6.80;99.90
35445;DHT22;21562;49.476;6.086;2022-12-07T14:54:01;6.90;99.90
35445;DHT22;21562;49.476;6.086;2022-12-07T14:56:27;7.20;99.90
35445;DHT22;21562;49.476;6.086;2022-12-07T14:58:53;7.30;99.90
35445;DHT22;21562;49.476;6.086;2022-12-07T15:01:19;7.20;99.90
35445;DHT22;21562;49.476;6.086;2022-12-07T15:03:44;7.20;99.90
35445;DHT22;21562;49.476;6.086;2022-12-07T15:06:14;7.10;99.90
35445;DHT22;21562;49.476;6.086;2022-12-07T15:08:40;7.10;99.90
35445;DHT22;21562;49.476;6.086;2022-12-07T15:11:05;7.20;99.90
35445;DHT22;21562;49.476;6.086;2022-12-07T15:13:31;7.10;99.90
35445;DHT22;21562;49.476;6.086;2022-12-07T15:16:19;7.00;99.90
35445;DHT22;21562;49.476;6.086;2022-12-07T15:18:46;6.70;99.90
35445;DHT22;21562;49.476;6.086;2022-12-07T15:21:15;6.60;99.90
35445;DHT22;21562;49.476;6.086;2022-12-07T15:23:41;6.50;99.90
35445;DHT22;21562;49.476;6.086;2022-12-07T15:26:07;6.50;99.90
35445;DHT22;21562;49.476;6.086;2022-12-07T15:28:34;6.40;99.90
35445;DHT22;21562;49.476;6.086;2022-12-07T15:31:00;6.20;99.90
35445;DHT22;21562;49.476;6.086;2022-12-07T15:33:26;5.70;99.90
35445;DHT22;21562;49.476;6.086;2022-12-07T15:35:51;5.60;99.90
35445;DHT22;21562;49.476;6.086;2022-12-07T15:38:17;5.60;99.90
35445;DHT22;21562;49.476;6.086;2022-12-07T15:40:46;5.80;99.90
35445;DHT22;21562;49.476;6.086;2022-12-07T15:43:12;5.80;99.90
35445;DHT22;21562;49.476;6.086;2022-12-07T15:45:56;5.90;99.90
35445;DHT22;21562;49.476;6.086;2022-12-07T15:48:22;5.90;99.90
35445;DHT22;21562;49.476;6.086;2022-12-07T15:50:48;5.70;99.90
35445;DHT22;21562;49.476;6.086;2022-12-07T15:53:14;5.60;99.90
35445;DHT22;21562;49.476;6.086;2022-12-07T15:55:40;5.60;99.90
35445;DHT22;21562;49.476;6.086;2022-12-07T15:58:06;5.80;99.90
35445;DHT22;21562;49.476;6.086;2022-12-07T16:00:32;5.90;99.90
35445;DHT22;21562;49.476;6.086;2022-12-07T16:02:58;5.90;99.90
35445;DHT22;21562;49.476;6.086;2022-12-07T16:05:23;5.80;99.90
35445;DHT22;21562;49.476;6.086;2022-12-07T16:07:49;5.90;99.90
35445;DHT22;21562;49.476;6.086;2022-12-07T16:10:16;5.80;99.90
35445;DHT22;21562;49.476;6.086;2022-12-07T16:12:42;5.80;99.90
35445;DHT22;21562;49.476;6.086;2022-12-07T16:15:08;5.80;99.90
35445;DHT22;21562;49.476;6.086;2022-12-07T16:17:33;6.00;99.90
35445;DHT22;21562;49.476;6.086;2022-12-07T16:19:59;6.00;99.90
35445;DHT22;21562;49.476;6.086;2022-12-07T16:22:25;6.00;99.90
35445;DHT22;21562;49.476;6.086;2022-12-07T16:24:50;5.90;99.90
35445;DHT22;21562;49.476;6.086;2022-12-07T16:27:16;5.90;99.90
35445;DHT22;21562;49.476;6.086;2022-12-07T16:29:41;6.00;99.90
35445;DHT22;21562;49.476;6.086;2022-12-07T16:32:07;6.00;99.90
35445;DHT22;21562;49.476;6.086;2022-12-07T16:34:33;6.00;99.90
35445;DHT22;21562;49.476;6.086;2022-12-07T16:36:58;5.70;99.90
35445;DHT22;21562;49.476;6.086;2022-12-07T16:39:24;5.80;99.90
35445;DHT22;21562;49.476;6.086;2022-12-07T16:41:50;5.70;99.90
35445;DHT22;21562;49.476;6.086;2022-12-07T16:44:16;5.70;99.90
35445;DHT22;21562;49.476;6.086;2022-12-07T16:46:42;5.60;99.90
35445;DHT22;21562;49.476;6.086;2022-12-07T16:49:15;5.40;99.90
35445;DHT22;21562;49.476;6.086;2022-12-07T16:51:41;5.40;99.90
35445;DHT22;21562;49.476;6.086;2022-12-07T16:54:10;5.30;99.90
35445;DHT22;21562;49.476;6.086;2022-12-07T16:56:37;5.40;99.90
35445;DHT22;21562;49.476;6.086;2022-12-07T16:59:03;5.30;99.90
35445;DHT22;21562;49.476;6.086;2022-12-07T17:01:28;5.30;99.90
35445;DHT22;21562;49.476;6.086;2022-12-07T17:03:55;5.30;99.90
35445;DHT22;21562;49.476;6.086;2022-12-07T17:06:24;5.20;99.90
35445;DHT22;21562;49.476;6.086;2022-12-07T17:08:51;5.00;99.90
35445;DHT22;21562;49.476;6.086;2022-12-07T17:11:22;5.10;99.90
35445;DHT22;21562;49.476;6.086;2022-12-07T17:13:48;5.20;99.90
35445;DHT22;21562;49.476;6.086;2022-12-07T17:16:32;5.40;99.90
35445;DHT22;21562;49.476;6.086;2022-12-07T17:18:58;5.30;99.90
35445;DHT22;21562;49.476;6.086;2022-12-07T17:21:24;5.30;99.90
35445;DHT22;21562;49.476;6.086;2022-12-07T17:23:50;5.10;99.90
35445;DHT22;21562;49.476;6.086;2022-12-07T17:26:24;5.00;99.90
35445;DHT22;21562;49.476;6.086;2022-12-07T17:28:50;4.90;99.90
35445;DHT22;21562;49.476;6.086;2022-12-07T17:31:19;4.90;99.90
35445;DHT22;21562;49.476;6.086;2022-12-07T17:33:46;5.10;99.90
35445;DHT22;21562;49.476;6.086;2022-12-07T17:36:19;5.00;99.90
35445;DHT22;21562;49.476;6.086;2022-12-07T17:38:46;4.90;99.90
35445;DHT22;21562;49.476;6.086;2022-12-07T17:41:18;5.10;99.90
35445;DHT22;21562;49.476;6.086;2022-12-07T17:44:05;5.10;99.90
35445;DHT22;21562;49.476;6.086;2022-12-07T17:46:31;5.00;99.90
35445;DHT22;21562;49.476;6.086;2022-12-07T17:48:58;5.20;99.90
35445;DHT22;21562;49.476;6.086;2022-12-07T17:51:24;5.20;99.90
35445;DHT22;21562;49.476;6.086;2022-12-07T17:54:09;5.00;99.90
35445;DHT22;21562;49.476;6.086;2022-12-07T17:56:35;4.90;99.90
35445;DHT22;21562;49.476;6.086;2022-12-07T17:59:01;4.80;99.90
35445;DHT22;21562;49.476;6.086;2022-12-07T18:01:27;4.80;99.90
35445;DHT22;21562;49.476;6.086;2022-12-07T18:03:52;4.90;99.90